Time;durP1;ratioP1;P1;durP2;ratioP2;P2;SDS_P1;SDS_P2;PMS_P1;PMS_P2;Temp;Humidity;BMP_temperature;BMP_pressure;BME280_temperature;BME280_humidity;BME280_pressure;Samples;Min_cycle;Max_cycle;Signal;HPM_P1;HPM_P2
2021/09/08 00:01:51;;;;;;;32.78;20.55;;;28.70;99.90;;;;;;3894121;30;20068;-68
2021/09/08 00:04:14;;;;;;;30.63;19.90;;;28.70;99.90;;;;;;3879452;30;20053;-68
2021/09/08 00:06:18;;;;;;;28.13;19.02;;;28.70;99.90;;;;;;3880282;30;20085;-68
2021/09/08 00:08:42;;;;;;;29.15;18.40;;;28.80;99.90;;;;;;3879829;30;20205;-68
2021/09/08 00:11:45;;;;;;;21.15;16.55;;;28.80;99.90;;;;;;3866629;30;20058;-68
2021/09/08 00:14:09;;;;;;;24.23;16.52;;;28.80;99.90;;;;;;3866821;30;20085;-68
2021/09/08 00:19:53;;;;;;;21.95;15.20;;;28.80;99.90;;;;;;3845161;30;20178;-68
2021/09/08 00:22:13;;;;;;;22.85;15.65;;;28.90;99.90;;;;;;3851996;30;20070;-68
2021/09/08 00:24:37;;;;;;;20.27;14.48;;;28.80;99.90;;;;;;3852760;30;20062;-68
2021/09/08 00:27:06;;;;;;;22.20;15.57;;;28.90;99.90;;;;;;3895185;30;20053;-68
2021/09/08 00:30:09;;;;;;;24.00;15.30;;;28.90;99.90;;;;;;3913036;30;20084;-68
2021/09/08 00:32:38;;;;;;;18.25;14.02;;;29.10;99.90;;;;;;3908136;30;20049;-68
2021/09/08 00:35:10;;;;;;;18.92;14.02;;;29.00;99.90;;;;;;3887099;30;20822;-68
2021/09/08 00:37:29;;;;;;;21.27;13.15;;;28.90;99.90;;;;;;3876417;30;20505;-68
2021/09/08 00:39:51;;;;;;;20.38;12.93;;;29.00;99.90;;;;;;3852432;30;20073;-68
2021/09/08 00:42:33;;;;;;;16.88;12.38;;;29.00;99.90;;;;;;3852626;30;20059;-68
2021/09/08 00:45:09;;;;;;;18.80;13.23;;;28.90;99.90;;;;;;3853334;30;20633;-68
2021/09/08 00:47:54;;;;;;;19.35;12.43;;;29.00;99.90;;;;;;3837870;30;20523;-69
2021/09/08 00:50:00;;;;;;;16.98;12.52;;;29.10;99.90;;;;;;3897224;30;20216;-69
2021/09/08 00:52:25;;;;;;;18.75;13.85;;;29.20;99.90;;;;;;3911660;30;20063;-69
2021/09/08 00:55:34;;;;;;;21.70;14.00;;;29.20;99.90;;;;;;3863930;30;20058;-69
2021/09/08 00:58:20;;;;;;;20.38;13.50;;;29.20;99.90;;;;;;3807469;30;20079;-69
2021/09/08 01:01:07;;;;;;;22.50;15.43;;;29.30;99.90;;;;;;3782441;31;20095;-69
2021/09/08 01:04:14;;;;;;;22.73;14.68;;;29.40;99.90;;;;;;3802552;31;20233;-69
2021/09/08 01:06:37;;;;;;;21.20;14.25;;;29.30;99.90;;;;;;3826811;30;20054;-69
2021/09/08 01:09:21;;;;;;;17.20;14.35;;;29.30;99.90;;;;;;3826877;30;20166;-69
2021/09/08 01:11:39;;;;;;;19.55;14.00;;;29.30;99.90;;;;;;3829547;30;20153;-69
2021/09/08 01:13:48;;;;;;;19.10;14.38;;;29.30;99.90;;;;;;3815153;31;20522;-70
2021/09/08 01:16:17;;;;;;;15.07;12.43;;;29.20;99.90;;;;;;3808122;31;20136;-69
2021/09/08 01:18:30;;;;;;;27.70;13.80;;;29.20;99.90;;;;;;3864670;30;20069;-69
2021/09/08 01:20:44;;;;;;;20.73;15.27;;;29.20;99.90;;;;;;3864419;30;20072;-69
2021/09/08 01:23:03;;;;;;;24.33;16.05;;;29.30;99.90;;;;;;3867874;30;20119;-69
2021/09/08 01:25:28;;;;;;;30.58;17.15;;;29.30;99.90;;;;;;3859743;30;20237;-70
2021/09/08 01:27:54;;;;;;;25.02;16.60;;;29.30;99.90;;;;;;3909120;30;20520;-70
2021/09/08 01:30:25;;;;;;;20.83;14.73;;;29.30;99.90;;;;;;3908086;30;20060;-70
2021/09/08 01:32:39;;;;;;;20.17;13.43;;;29.30;99.90;;;;;;3929113;30;20054;-69
2021/09/08 01:34:53;;;;;;;23.73;14.80;;;29.30;99.90;;;;;;3970000;29;20101;-69
2021/09/08 01:36:58;;;;;;;21.30;13.65;;;29.20;99.90;;;;;;4014766;29;20167;-69
2021/09/08 01:39:07;;;;;;;19.67;13.82;;;29.10;99.90;;;;;;4013287;29;20061;-69
2021/09/08 01:41:35;;;;;;;21.27;14.52;;;29.20;99.90;;;;;;4028176;29;20101;-69
2021/09/08 01:43:39;;;;;;;22.30;14.32;;;29.20;99.90;;;;;;3997617;29;20062;-69
2021/09/08 01:45:47;;;;;;;21.85;14.15;;;29.30;99.90;;;;;;3998332;29;20406;-69
2021/09/08 01:48:11;;;;;;;19.17;14.32;;;29.10;99.90;;;;;;4019632;29;20550;-69
2021/09/08 01:50:44;;;;;;;25.07;14.23;;;29.10;99.90;;;;;;4093738;28;20050;-69
2021/09/08 01:52:49;;;;;;;19.98;13.15;;;29.00;99.90;;;;;;4075111;29;20139;-69
2021/09/08 01:55:17;;;;;;;17.77;13.95;;;29.00;99.90;;;;;;4051670;29;20056;-69
2021/09/08 01:57:44;;;;;;;33.75;25.77;;;29.00;99.90;;;;;;4053872;29;20056;-70
2021/09/08 01:59:48;;;;;;;23.88;18.77;;;28.90;99.90;;;;;;4026759;29;20093;-70
2021/09/08 02:02:14;;;;;;;17.65;13.18;;;28.70;99.90;;;;;;3976558;29;20410;-70
2021/09/08 02:05:08;;;;;;;19.20;12.65;;;28.70;99.90;;;;;;3982645;29;20115;-69
2021/09/08 02:07:15;;;;;;;18.88;13.18;;;28.70;99.90;;;;;;3936797;30;20134;-70
2021/09/08 02:09:44;;;;;;;15.93;10.70;;;28.80;99.90;;;;;;3935992;30;20070;-69
2021/09/08 02:12:17;;;;;;;13.45;9.32;;;28.70;99.90;;;;;;3899614;30;20140;-69
2021/09/08 02:14:37;;;;;;;13.57;8.60;;;28.70;99.90;;;;;;3899318;30;20068;-69
2021/09/08 02:16:41;;;;;;;9.20;6.63;;;28.60;99.90;;;;;;3911650;30;20505;-69
2021/09/08 02:19:09;;;;;;;7.45;6.22;;;28.30;99.90;;;;;;3915568;30;20063;-69
2021/09/08 02:21:13;;;;;;;10.48;6.35;;;28.10;99.90;;;;;;3921247;30;20060;-69
2021/09/08 02:23:26;;;;;;;6.57;5.68;;;28.10;99.90;;;;;;3913860;30;20513;-69
2021/09/08 02:25:53;;;;;;;6.18;4.63;;;28.00;99.90;;;;;;3913539;30;20088;-69
2021/09/08 02:28:03;;;;;;;8.15;4.07;;;28.00;99.90;;;;;;3915181;30;20140;-69
2021/09/08 02:30:11;;;;;;;10.77;4.40;;;28.00;99.90;;;;;;3905596;30;20052;-69
2021/09/08 02:32:25;;;;;;;9.40;4.20;;;27.80;99.90;;;;;;3913188;30;20064;-69
2021/09/08 02:34:37;;;;;;;8.93;3.70;;;27.60;99.90;;;;;;3914370;30;20083;-68
2021/09/08 02:36:51;;;;;;;10.90;4.15;;;27.60;99.90;;;;;;3910792;30;20057;-68
2021/09/08 02:39:15;;;;;;;7.07;3.50;;;27.50;99.90;;;;;;3934535;30;20059;-67
2021/09/08 02:41:39;;;;;;;10.68;3.75;;;27.70;99.90;;;;;;3959751;29;20552;-68
2021/09/08 02:43:47;;;;;;;8.90;3.47;;;27.90;99.90;;;;;;3962357;29;20134;-68
2021/09/08 02:46:04;;;;;;;9.90;3.30;;;28.10;99.90;;;;;;4015861;29;20087;-68
2021/09/08 02:48:18;;;;;;;9.32;3.95;;;28.30;99.90;;;;;;4016193;29;20073;-69
2021/09/08 02:50:45;;;;;;;8.40;3.85;;;28.40;99.90;;;;;;4004113;29;20050;-68
2021/09/08 02:52:49;;;;;;;17.85;4.00;;;28.40;99.90;;;;;;4034488;29;20084;-69
2021/09/08 02:55:18;;;;;;;12.35;4.18;;;28.10;99.90;;;;;;4046956;29;20060;-70
2021/09/08 02:57:22;;;;;;;8.98;3.92;;;28.10;99.90;;;;;;4046856;29;20179;-69
2021/09/08 02:59:49;;;;;;;8.30;2.90;;;27.80;99.90;;;;;;4046730;29;20079;-69
2021/09/08 03:02:01;;;;;;;5.53;3.00;;;27.60;99.90;;;;;;4030837;29;20594;-69
2021/09/08 03:04:11;;;;;;;5.65;3.15;;;27.70;99.90;;;;;;4015880;29;20057;-69
2021/09/08 03:06:47;;;;;;;10.82;4.00;;;27.40;99.90;;;;;;4030811;29;20105;-70
2021/09/08 03:09:11;;;;;;;12.80;4.20;;;27.20;99.90;;;;;;4015700;29;20069;-68
2021/09/08 03:11:34;;;;;;;9.27;4.25;;;27.20;99.90;;;;;;4056721;29;20056;-69
2021/09/08 03:13:39;;;;;;;9.15;4.40;;;27.20;99.90;;;;;;4063937;29;20059;-70
2021/09/08 03:15:47;;;;;;;10.55;5.40;;;27.30;99.90;;;;;;4061617;29;20067;-68
2021/09/08 03:18:01;;;;;;;13.50;3.72;;;27.40;99.90;;;;;;4062059;29;20139;-69
2021/09/08 03:20:18;;;;;;;8.98;3.80;;;27.50;99.90;;;;;;4102206;28;20051;-69
2021/09/08 03:22:23;;;;;;;7.63;3.72;;;27.20;99.90;;;;;;4102970;28;20517;-68
2021/09/08 03:24:59;;;;;;;9.02;4.05;;;27.40;99.90;;;;;;4093085;28;20545;-69
2021/09/08 03:27:05;;;;;;;8.05;4.13;;;27.20;99.90;;;;;;4094053;28;20039;-69
2021/09/08 03:29:13;;;;;;;11.23;4.85;;;27.30;99.90;;;;;;4094432;28;20137;-68
2021/09/08 03:31:27;;;;;;;11.93;4.38;;;27.30;99.90;;;;;;4094035;28;20115;-69
2021/09/08 03:33:35;;;;;;;7.95;4.25;;;27.20;99.90;;;;;;4103549;28;20082;-69
2021/09/08 03:36:00;;;;;;;5.95;3.72;;;27.50;99.90;;;;;;4108704;28;20191;-68
2021/09/08 03:38:05;;;;;;;8.43;4.25;;;27.50;99.90;;;;;;4109826;28;20050;-68
2021/09/08 03:40:10;;;;;;;5.53;3.97;;;27.40;99.90;;;;;;4119636;28;20050;-68
2021/09/08 03:42:16;;;;;;;6.50;4.13;;;27.30;99.90;;;;;;4123606;28;20100;-69
2021/09/08 03:45:02;;;;;;;7.43;3.50;;;27.40;99.90;;;;;;4124339;28;20079;-68
2021/09/08 03:47:27;;;;;;;7.72;2.97;;;27.30;99.90;;;;;;4111664;28;20576;-67
2021/09/08 03:49:34;;;;;;;6.97;3.47;;;27.50;99.90;;;;;;4094757;28;20047;-67
2021/09/08 03:51:51;;;;;;;7.57;3.67;;;27.80;99.90;;;;;;4094145;28;20470;-69
2021/09/08 03:53:59;;;;;;;8.40;4.32;;;27.70;99.90;;;;;;4095098;28;20134;-68
2021/09/08 03:56:12;;;;;;;10.07;4.80;;;27.70;99.90;;;;;;4088015;28;20079;-70
2021/09/08 03:58:27;;;;;;;9.55;4.20;;;27.80;99.90;;;;;;4077361;29;20043;-68
2021/09/08 04:01:07;;;;;;;6.88;4.50;;;27.80;99.90;;;;;;4030282;29;20171;-69
2021/09/08 04:03:26;;;;;;;6.97;4.40;;;27.80;99.90;;;;;;4015240;29;20050;-69
2021/09/08 04:05:35;;;;;;;5.60;3.17;;;27.70;99.90;;;;;;4015457;29;20045;-69
2021/09/08 04:07:42;;;;;;;4.53;3.50;;;27.70;99.90;;;;;;4014622;29;20132;-70
2021/09/08 04:09:50;;;;;;;4.50;3.33;;;28.00;99.90;;;;;;4014199;29;20108;-70
2021/09/08 04:12:12;;;;;;;3.38;2.88;;;28.10;99.90;;;;;;4015861;29;20178;-70
2021/09/08 04:14:37;;;;;;;4.53;3.30;;;28.20;99.90;;;;;;4015645;29;20053;-69
2021/09/08 04:17:11;;;;;;;5.63;3.30;;;28.10;99.90;;;;;;4014961;29;20073;-69
2021/09/08 04:19:15;;;;;;;8.40;6.47;;;28.00;99.90;;;;;;4014388;29;20195;-69
2021/09/08 04:21:23;;;;;;;6.50;4.72;;;28.00;99.90;;;;;;4014858;29;20215;-69
2021/09/08 04:24:03;;;;;;;5.68;3.50;;;28.20;99.90;;;;;;4015476;29;20136;-70
2021/09/08 04:26:14;;;;;;;4.50;3.10;;;28.40;99.90;;;;;;4015535;29;20095;-69
2021/09/08 04:28:18;;;;;;;4.20;2.72;;;28.40;99.90;;;;;;4045723;29;20591;-69
2021/09/08 04:30:23;;;;;;;4.03;2.83;;;28.50;99.90;;;;;;4045617;29;20053;-69
2021/09/08 04:32:35;;;;;;;3.67;2.80;;;28.60;99.90;;;;;;4045555;29;20071;-69
2021/09/08 04:34:42;;;;;;;4.43;2.95;;;28.70;99.90;;;;;;4063989;29;20059;-69
2021/09/08 04:37:03;;;;;;;3.63;3.20;;;28.70;99.90;;;;;;4046954;29;20056;-70
2021/09/08 04:39:27;;;;;;;4.22;3.60;;;28.50;99.90;;;;;;4060381;29;20108;-70
2021/09/08 04:41:32;;;;;;;6.47;4.13;;;28.50;99.90;;;;;;4061031;29;20052;-69
2021/09/08 04:44:01;;;;;;;5.22;3.83;;;28.50;99.90;;;;;;4059721;29;20047;-69
2021/09/08 04:46:08;;;;;;;4.90;3.85;;;28.60;99.90;;;;;;4059236;29;20036;-69
2021/09/08 04:48:22;;;;;;;4.97;4.00;;;28.70;99.90;;;;;;4057785;29;20131;-68
2021/09/08 04:50:36;;;;;;;6.93;4.53;;;28.60;99.90;;;;;;4058633;29;20044;-69
2021/09/08 04:52:44;;;;;;;6.40;4.53;;;28.60;99.90;;;;;;4059223;29;20052;-68
2021/09/08 04:55:28;;;;;;;5.45;4.68;;;28.70;99.90;;;;;;4068414;29;20098;-68
2021/09/08 04:57:43;;;;;;;5.00;4.50;;;28.60;99.90;;;;;;4091830;29;20051;-68
2021/09/08 05:00:09;;;;;;;7.65;4.90;;;28.70;99.90;;;;;;4030595;29;20069;-68
2021/09/08 05:02:44;;;;;;;7.00;5.13;;;29.00;99.90;;;;;;4031015;29;20109;-68
2021/09/08 05:05:09;;;;;;;5.38;4.95;;;29.00;99.90;;;;;;4029988;29;20053;-69
2021/09/08 05:07:33;;;;;;;7.18;5.20;;;28.90;99.90;;;;;;4014545;29;20046;-69
2021/09/08 05:09:38;;;;;;;7.45;4.60;;;29.00;99.90;;;;;;4012295;29;20045;-69
2021/09/08 05:11:52;;;;;;;6.93;5.68;;;29.10;99.90;;;;;;4013533;29;20042;-68
2021/09/08 05:14:07;;;;;;;6.50;5.47;;;29.30;99.90;;;;;;4017605;29;20088;-69
2021/09/08 05:16:17;;;;;;;7.28;5.70;;;29.10;99.90;;;;;;4044237;29;20123;-68
2021/09/08 05:18:22;;;;;;;5.75;5.25;;;29.20;99.90;;;;;;4045268;29;20054;-68
2021/09/08 05:20:32;;;;;;;6.10;5.07;;;29.30;99.90;;;;;;4045179;29;20178;-68
2021/09/08 05:22:44;;;;;;;7.40;5.15;;;29.20;99.90;;;;;;4040520;29;20060;-68
2021/09/08 05:25:11;;;;;;;6.47;5.88;;;29.30;99.90;;;;;;4043713;29;20063;-68
2021/09/08 05:27:38;;;;;;;7.50;5.97;;;29.40;99.90;;;;;;4029890;29;20473;-68
2021/09/08 05:29:45;;;;;;;6.20;5.55;;;29.60;99.90;;;;;;4016414;29;20054;-68
2021/09/08 05:31:53;;;;;;;8.20;5.38;;;29.70;99.90;;;;;;4016094;29;20572;-68
2021/09/08 05:34:33;;;;;;;6.30;5.50;;;29.70;99.90;;;;;;3968259;29;20043;-68
2021/09/08 05:36:47;;;;;;;5.95;5.32;;;29.80;99.90;;;;;;3940257;30;20051;-68
2021/09/08 05:39:23;;;;;;;10.17;5.23;;;29.70;99.90;;;;;;3955290;30;20055;-68
2021/09/08 05:41:47;;;;;;;6.43;5.50;;;29.60;99.90;;;;;;3951999;30;20058;-68
2021/09/08 05:44:05;;;;;;;7.30;5.50;;;29.70;99.90;;;;;;3911726;30;20053;-68
2021/09/08 05:46:32;;;;;;;7.18;5.55;;;29.70;99.90;;;;;;3903820;30;21328;-68
2021/09/08 05:48:40;;;;;;;6.10;5.05;;;29.90;99.90;;;;;;3941710;30;20059;-68
2021/09/08 05:50:45;;;;;;;5.97;5.20;;;29.80;99.90;;;;;;3941671;30;20079;-68
2021/09/08 05:52:49;;;;;;;5.40;4.70;;;29.90;99.90;;;;;;3941279;30;20061;-68
2021/09/08 05:54:56;;;;;;;5.97;5.32;;;29.90;99.90;;;;;;3942207;30;20052;-68
2021/09/08 05:57:00;;;;;;;6.70;5.68;;;29.70;99.90;;;;;;3932333;30;20052;-68
2021/09/08 05:59:04;;;;;;;6.03;5.43;;;29.70;99.90;;;;;;3933140;30;20461;-68
2021/09/08 06:01:09;;;;;;;6.10;5.50;;;29.80;99.90;;;;;;3930838;30;20048;-69
2021/09/08 06:03:13;;;;;;;5.50;5.00;;;29.90;99.90;;;;;;3935439;29;20066;-68
2021/09/08 06:05:22;;;;;;;5.75;5.13;;;30.10;99.90;;;;;;3955473;29;20150;-68
2021/09/08 06:07:26;;;;;;;5.28;4.78;;;30.20;99.90;;;;;;3956719;29;20526;-67
2021/09/08 06:09:30;;;;;;;5.22;4.47;;;30.20;99.90;;;;;;3969970;29;20418;-68
2021/09/08 06:11:35;;;;;;;5.70;4.95;;;30.10;99.90;;;;;;3982713;29;20080;-68
2021/09/08 06:13:39;;;;;;;6.97;4.95;;;30.00;99.90;;;;;;3999972;29;20053;-68
2021/09/08 06:15:43;;;;;;;8.15;5.93;;;30.00;99.90;;;;;;4035651;29;20064;-68
2021/09/08 06:17:50;;;;;;;5.20;4.70;;;30.00;99.90;;;;;;4043989;29;20057;-68
2021/09/08 06:19:55;;;;;;;6.90;5.00;;;30.10;99.90;;;;;;4045226;29;20056;-68
2021/09/08 06:22:00;;;;;;;5.75;4.45;;;30.00;99.90;;;;;;4088507;28;20065;-68
2021/09/08 06:24:08;;;;;;;5.70;4.63;;;30.00;99.90;;;;;;4107193;28;20046;-68
2021/09/08 06:26:12;;;;;;;5.78;5.18;;;30.00;99.90;;;;;;4108164;28;20055;-67
2021/09/08 06:28:24;;;;;;;5.18;4.68;;;30.10;99.90;;;;;;4108658;28;20057;-68
2021/09/08 06:30:31;;;;;;;4.85;4.32;;;30.30;99.90;;;;;;4108552;28;20101;-68
2021/09/08 06:32:36;;;;;;;5.03;4.25;;;30.40;99.90;;;;;;4115905;28;20048;-68
2021/09/08 06:34:48;;;;;;;7.30;4.65;;;30.10;99.90;;;;;;4127363;28;20502;-69
2021/09/08 06:36:53;;;;;;;5.80;4.70;;;30.10;99.90;;;;;;4127253;28;20042;-68
2021/09/08 06:38:58;;;;;;;6.45;4.78;;;30.30;99.90;;;;;;4126857;28;20136;-68
2021/09/08 06:41:05;;;;;;;7.95;4.70;;;30.40;99.90;;;;;;4125824;28;20050;-68
2021/09/08 06:43:10;;;;;;;4.90;4.50;;;30.40;99.90;;;;;;4127185;28;20046;-68
2021/09/08 06:45:16;;;;;;;5.97;5.00;;;30.30;99.90;;;;;;4127208;28;20050;-68
2021/09/08 06:47:21;;;;;;;5.40;4.88;;;30.30;99.90;;;;;;4127021;28;20483;-68
2021/09/08 06:49:26;;;;;;;7.43;5.03;;;30.40;99.90;;;;;;4124984;28;20070;-68
2021/09/08 06:51:31;;;;;;;6.68;4.72;;;30.40;99.90;;;;;;4127695;28;20050;-68
2021/09/08 06:53:37;;;;;;;9.80;5.57;;;30.40;99.90;;;;;;4127372;28;20454;-69
2021/09/08 06:55:44;;;;;;;6.38;5.30;;;30.50;99.90;;;;;;4125901;28;20046;-68
2021/09/08 06:57:49;;;;;;;6.65;4.60;;;30.70;99.90;;;;;;4127331;28;20055;-67
2021/09/08 06:59:53;;;;;;;8.10;5.20;;;30.70;99.90;;;;;;4127661;28;20444;-68
2021/09/08 07:02:01;;;;;;;7.90;5.20;;;30.70;99.90;;;;;;4127158;28;20534;-68
2021/09/08 07:04:06;;;;;;;8.50;7.40;;;30.70;99.90;;;;;;4124006;28;20058;-69
2021/09/08 07:06:13;;;;;;;10.23;8.02;;;30.80;99.90;;;;;;4124675;28;20097;-68
2021/09/08 07:08:18;;;;;;;8.32;7.15;;;30.90;99.90;;;;;;4126028;28;20742;-68
2021/09/08 07:10:23;;;;;;;6.95;5.20;;;30.90;99.90;;;;;;4124465;28;20039;-68
2021/09/08 07:12:30;;;;;;;6.78;5.10;;;30.90;99.90;;;;;;4126272;28;20050;-69
2021/09/08 07:14:35;;;;;;;9.40;5.13;;;30.90;99.90;;;;;;4125706;28;20048;-68
2021/09/08 07:16:40;;;;;;;6.55;4.82;;;30.90;99.90;;;;;;4126176;28;20042;-68
2021/09/08 07:18:45;;;;;;;6.45;4.85;;;31.00;99.90;;;;;;4125133;28;20262;-68
2021/09/08 07:20:49;;;;;;;5.90;5.07;;;30.90;99.90;;;;;;4126087;28;20133;-68
2021/09/08 07:22:54;;;;;;;5.93;5.13;;;30.90;99.90;;;;;;4124327;28;20046;-67
2021/09/08 07:24:59;;;;;;;7.57;5.22;;;30.90;99.90;;;;;;4126278;28;20109;-67
2021/09/08 07:27:03;;;;;;;6.43;5.50;;;30.90;99.90;;;;;;4124956;28;20346;-69
2021/09/08 07:29:10;;;;;;;8.30;5.38;;;30.90;99.90;;;;;;4124449;28;20081;-68
2021/09/08 07:31:15;;;;;;;6.20;5.55;;;30.90;99.90;;;;;;4125927;28;20115;-68
2021/09/08 07:33:29;;;;;;;7.65;5.50;;;30.90;99.90;;;;;;4125266;28;20138;-68
2021/09/08 07:35:33;;;;;;;7.05;5.47;;;30.90;99.90;;;;;;4124411;28;20054;-68
2021/09/08 07:37:38;;;;;;;7.78;4.93;;;30.90;99.90;;;;;;4119616;28;20050;-68
2021/09/08 07:39:42;;;;;;;6.15;5.20;;;30.90;99.90;;;;;;4123589;28;20048;-68
2021/09/08 07:41:47;;;;;;;5.70;4.90;;;31.00;99.90;;;;;;4124411;28;20060;-68
2021/09/08 07:43:51;;;;;;;4.93;4.45;;;30.90;99.90;;;;;;4122541;28;20497;-68
2021/09/08 07:45:56;;;;;;;7.35;4.95;;;31.00;99.90;;;;;;4123520;28;20483;-68
2021/09/08 07:48:01;;;;;;;5.63;4.78;;;31.00;99.90;;;;;;4124500;28;20108;-68
2021/09/08 07:50:08;;;;;;;6.35;4.68;;;31.00;99.90;;;;;;4122517;28;20050;-68
2021/09/08 07:52:12;;;;;;;5.97;4.80;;;31.00;99.90;;;;;;4123557;28;20054;-68
2021/09/08 07:54:20;;;;;;;5.50;5.00;;;31.00;99.90;;;;;;4124146;28;20050;-68
2021/09/08 07:56:24;;;;;;;6.57;4.82;;;31.00;99.90;;;;;;4120542;28;20069;-67
2021/09/08 07:58:31;;;;;;;6.03;4.50;;;31.00;99.90;;;;;;4123733;28;20519;-68
2021/09/08 08:00:37;;;;;;;5.22;4.47;;;31.00;99.90;;;;;;4123888;28;20054;-68
2021/09/08 08:02:46;;;;;;;5.80;5.00;;;31.00;99.90;;;;;;4123381;28;20104;-68
2021/09/08 08:04:54;;;;;;;7.00;5.68;;;31.00;99.90;;;;;;4123862;28;20165;-67
2021/09/08 08:06:58;;;;;;;6.68;5.78;;;30.90;99.90;;;;;;4123428;28;20165;-68
2021/09/08 08:09:03;;;;;;;7.18;6.00;;;30.90;99.90;;;;;;4121937;28;20429;-67
2021/09/08 08:11:08;;;;;;;7.82;5.70;;;30.90;99.90;;;;;;4123089;28;20073;-68
2021/09/08 08:13:13;;;;;;;7.07;6.00;;;30.90;99.90;;;;;;4123865;28;20413;-67
2021/09/08 08:15:17;;;;;;;7.47;6.65;;;30.90;99.90;;;;;;4122495;28;20052;-67
2021/09/08 08:17:22;;;;;;;9.35;6.55;;;30.90;99.90;;;;;;4123146;28;20097;-67
2021/09/08 08:19:26;;;;;;;8.27;6.40;;;30.80;99.90;;;;;;4123021;28;20443;-67
2021/09/08 08:21:32;;;;;;;9.18;6.43;;;30.80;99.90;;;;;;4121845;28;20054;-67
2021/09/08 08:23:36;;;;;;;7.88;6.00;;;30.80;99.90;;;;;;4123427;28;20050;-67
2021/09/08 08:25:40;;;;;;;10.90;5.75;;;30.70;99.90;;;;;;4122436;28;20050;-67
2021/09/08 08:27:48;;;;;;;8.02;5.85;;;30.70;99.90;;;;;;4124160;28;20042;-67
2021/09/08 08:29:52;;;;;;;7.55;6.40;;;30.70;99.90;;;;;;4127767;28;20431;-67
2021/09/08 08:31:57;;;;;;;9.70;5.35;;;30.60;99.90;;;;;;4121785;28;20038;-67
2021/09/08 08:34:01;;;;;;;6.15;5.05;;;30.50;99.90;;;;;;4127160;28;20058;-67
2021/09/08 08:36:05;;;;;;;8.75;4.88;;;30.30;99.90;;;;;;4124595;28;20076;-67
2021/09/08 08:38:10;;;;;;;3.88;2.80;;;30.10;99.90;;;;;;4124747;28;20046;-67
2021/09/08 08:40:15;;;;;;;2.55;1.65;;;29.80;99.90;;;;;;4123015;28;20134;-67
2021/09/08 08:42:22;;;;;;;4.75;2.03;;;29.00;99.90;;;;;;4125136;28;20046;-67
2021/09/08 08:44:35;;;;;;;3.35;1.40;;;28.40;99.90;;;;;;4125117;28;20436;-67
2021/09/08 08:46:40;;;;;;;3.22;1.67;;;28.00;99.90;;;;;;4123900;28;20057;-67
2021/09/08 08:48:45;;;;;;;7.57;1.92;;;27.80;99.90;;;;;;4124541;28;20630;-68
2021/09/08 08:50:49;;;;;;;9.52;1.98;;;27.00;99.90;;;;;;4125829;28;20050;-67
2021/09/08 08:52:55;;;;;;;7.03;1.98;;;26.80;99.90;;;;;;4125269;28;20146;-68
2021/09/08 08:55:00;;;;;;;6.22;1.58;;;27.20;99.90;;;;;;4125994;28;20046;-67
2021/09/08 08:57:09;;;;;;;6.03;1.20;;;27.60;99.90;;;;;;4125501;28;20060;-68
2021/09/08 08:59:14;;;;;;;7.40;1.25;;;27.80;99.90;;;;;;4132349;28;20513;-67
2021/09/08 09:01:22;;;;;;;3.03;0.88;;;28.00;99.90;;;;;;4127236;28;20132;-69
2021/09/08 09:03:28;;;;;;;2.55;0.70;;;28.20;99.90;;;;;;4125399;28;20046;-68
2021/09/08 09:05:45;;;;;;;3.00;0.80;;;28.30;99.90;;;;;;4065851;29;20066;-70
2021/09/08 09:07:49;;;;;;;5.43;1.40;;;28.30;99.90;;;;;;4062074;29;20123;-68
2021/09/08 09:10:00;;;;;;;3.40;0.90;;;28.40;99.90;;;;;;4061506;29;20048;-67
2021/09/08 09:12:09;;;;;;;4.18;0.90;;;28.40;99.90;;;;;;4060837;29;20183;-67
2021/09/08 09:14:18;;;;;;;9.20;1.33;;;28.40;99.90;;;;;;4045757;29;20067;-67
2021/09/08 09:16:26;;;;;;;5.03;1.08;;;28.40;99.90;;;;;;4062423;29;20052;-68
2021/09/08 09:18:44;;;;;;;3.83;1.13;;;28.40;99.90;;;;;;4061998;29;20111;-68
2021/09/08 09:21:14;;;;;;;2.95;0.90;;;28.40;99.90;;;;;;4052781;29;20151;-67
2021/09/08 09:23:22;;;;;;;6.57;1.05;;;28.40;99.90;;;;;;4064638;29;20056;-68
2021/09/08 09:25:58;;;;;;;6.88;1.40;;;28.30;99.90;;;;;;4065893;29;20055;-68
2021/09/08 09:28:30;;;;;;;5.78;1.23;;;28.40;99.90;;;;;;4018329;29;20098;-68
2021/09/08 09:30:53;;;;;;;5.35;1.25;;;28.40;99.90;;;;;;4019150;29;20113;-68
2021/09/08 09:33:06;;;;;;;;;;;28.30;99.90;;;;;;4016979;29;20049;-68
2021/09/08 09:35:47;;;;;;;3.88;1.15;;;28.30;99.90;;;;;;3980090;29;19929;-69
2021/09/08 09:38:06;;;;;;;3.05;1.25;;;28.30;99.90;;;;;;3981058;29;20645;-68
2021/09/08 09:40:34;;;;;;;3.70;1.42;;;28.30;99.90;;;;;;3982050;29;20100;-68
2021/09/08 09:43:18;;;;;;;5.95;1.52;;;28.40;99.90;;;;;;3976310;29;20960;-68
2021/09/08 09:46:16;;;;;;;7.35;4.10;;;28.40;99.90;;;;;;3998819;29;20058;-68
2021/09/08 09:48:48;;;;;;;10.73;3.35;;;28.30;99.90;;;;;;3997903;29;20284;-68
2021/09/08 09:51:13;;;;;;;9.45;2.72;;;28.30;99.90;;;;;;4001938;29;20119;-68
2021/09/08 09:53:19;;;;;;;6.13;2.47;;;28.30;99.90;;;;;;3969393;29;20469;-68
2021/09/08 09:55:29;;;;;;;4.90;3.00;;;28.30;99.90;;;;;;3968037;29;20127;-68
2021/09/08 09:57:33;;;;;;;7.47;3.63;;;28.20;99.90;;;;;;3970521;29;20062;-68
2021/09/08 09:59:37;;;;;;;4.88;2.53;;;28.20;99.90;;;;;;4003241;29;20065;-68
2021/09/08 10:02:26;;;;;;;6.00;3.40;;;28.20;99.90;;;;;;4015193;29;20509;-68
2021/09/08 10:04:55;;;;;;;6.88;3.00;;;28.10;99.90;;;;;;3969825;29;20307;-68
2021/09/08 10:07:04;;;;;;;8.00;2.20;;;28.20;99.90;;;;;;3967852;29;20365;-68
2021/09/08 10:09:29;;;;;;;4.35;1.75;;;28.20;99.90;;;;;;3991699;29;20053;-68
2021/09/08 10:11:44;;;;;;;8.35;1.95;;;28.30;99.90;;;;;;3992505;29;20108;-68
2021/09/08 10:14:10;;;;;;;4.45;1.70;;;28.30;99.90;;;;;;4004178;29;20078;-68
2021/09/08 10:16:14;;;;;;;5.28;1.85;;;28.30;99.90;;;;;;3997524;29;20101;-69
2021/09/08 10:18:41;;;;;;;11.45;2.45;;;28.30;99.90;;;;;;3998783;29;20305;-68
2021/09/08 10:21:18;;;;;;;5.47;2.60;;;28.20;99.90;;;;;;3998878;29;20099;-68
2021/09/08 10:23:26;;;;;;;8.25;3.65;;;28.20;99.90;;;;;;3972846;29;20099;-68
2021/09/08 10:25:34;;;;;;;10.27;6.32;;;28.20;99.90;;;;;;4001203;29;20050;-68
2021/09/08 10:27:45;;;;;;;9.88;5.40;;;28.10;99.90;;;;;;4002683;29;20050;-67
2021/09/08 10:30:49;;;;;;;10.00;7.38;;;28.10;99.90;;;;;;3983719;29;20092;-68
2021/09/08 10:33:05;;;;;;;11.18;4.90;;;28.00;99.90;;;;;;3960066;29;20055;-68
2021/09/08 10:35:34;;;;;;;9.20;4.47;;;28.00;99.90;;;;;;3965672;29;20544;-68
2021/09/08 10:38:02;;;;;;;10.25;4.70;;;27.90;99.90;;;;;;3983740;29;20050;-68
2021/09/08 10:40:09;;;;;;;8.55;4.28;;;27.90;99.90;;;;;;3983058;29;20058;-68
2021/09/08 10:42:17;;;;;;;9.65;4.07;;;27.90;99.90;;;;;;3983842;29;20182;-68
2021/09/08 10:44:51;;;;;;;6.55;3.08;;;27.90;99.90;;;;;;3983850;29;20057;-68
2021/09/08 10:47:01;;;;;;;8.18;4.05;;;27.90;99.90;;;;;;3983468;29;20107;-68
2021/09/08 10:49:48;;;;;;;4.70;3.00;;;28.00;99.90;;;;;;4004927;29;20553;-68
2021/09/08 10:52:04;;;;;;;7.75;3.08;;;27.90;99.90;;;;;;4001742;29;20066;-68
2021/09/08 10:54:22;;;;;;;5.55;3.50;;;27.80;99.90;;;;;;4009334;29;20105;-69
2021/09/08 10:56:46;;;;;;;8.27;3.15;;;27.80;99.90;;;;;;4004717;29;20053;-69
2021/09/08 10:59:02;;;;;;;4.57;2.70;;;27.90;99.90;;;;;;4006990;29;20098;-69
2021/09/08 11:01:15;;;;;;;5.30;3.05;;;28.00;99.90;;;;;;4014096;29;20041;-68
2021/09/08 11:03:30;;;;;;;5.13;2.80;;;28.00;99.90;;;;;;4033777;29;20060;-68
2021/09/08 11:06:01;;;;;;;5.72;2.90;;;28.00;99.90;;;;;;4074127;29;20086;-69
2021/09/08 11:08:44;;;;;;;3.80;2.72;;;28.00;99.90;;;;;;4072865;28;20052;-68
2021/09/08 11:10:48;;;;;;;6.85;2.70;;;28.00;99.90;;;;;;4121468;28;20054;-68
2021/09/08 11:12:58;;;;;;;5.45;2.80;;;28.00;99.90;;;;;;4122295;28;20058;-68
2021/09/08 11:15:06;;;;;;;4.55;2.70;;;28.00;99.90;;;;;;4121483;28;20050;-68
2021/09/08 11:17:53;;;;;;;6.60;3.15;;;27.90;99.90;;;;;;4047796;29;20070;-68
2021/09/08 11:20:03;;;;;;;5.40;2.90;;;27.70;99.90;;;;;;4042730;29;20562;-67
2021/09/08 11:22:16;;;;;;;3.78;2.88;;;27.70;99.90;;;;;;4055334;29;20044;-68
2021/09/08 11:24:22;;;;;;;4.78;2.65;;;27.80;99.90;;;;;;4055105;29;20482;-68
2021/09/08 11:26:27;;;;;;;7.47;3.10;;;27.80;99.90;;;;;;4032750;29;20416;-68
2021/09/08 11:28:32;;;;;;;5.25;2.83;;;27.60;99.90;;;;;;4050236;29;20052;-67
2021/09/08 11:30:41;;;;;;;2.92;2.50;;;27.30;99.90;;;;;;4057047;29;20044;-67
2021/09/08 11:33:07;;;;;;;3.97;3.00;;;27.10;99.90;;;;;;4056250;29;20056;-67
2021/09/08 11:35:14;;;;;;;3.80;3.40;;;27.00;99.90;;;;;;4057107;29;20578;-68
2021/09/08 11:37:30;;;;;;;6.10;3.50;;;26.90;99.90;;;;;;4045338;29;20058;-67
2021/09/08 11:39:38;;;;;;;6.20;3.40;;;26.90;99.90;;;;;;4057944;29;20103;-67
2021/09/08 11:42:14;;;;;;;7.88;3.75;;;27.00;99.90;;;;;;4043622;29;20060;-68
2021/09/08 11:44:21;;;;;;;5.22;3.75;;;27.20;99.90;;;;;;4045526;29;20181;-67
2021/09/08 11:46:27;;;;;;;7.70;4.15;;;27.40;99.90;;;;;;4038600;29;20052;-67